createdAt,value
2022-12-11T00:01:14.621Z,-0.51
2022-12-11T00:04:17.879Z,-0.56
2022-12-11T00:07:20.838Z,-0.54
2022-12-11T00:10:23.751Z,-0.57
2022-12-11T00:13:26.515Z,-0.59
2022-12-11T00:16:29.461Z,-0.62
2022-12-11T00:19:32.374Z,-0.63
2022-12-11T00:22:35.751Z,-0.63
2022-12-11T00:25:44.370Z,-0.66
2022-12-11T00:28:48.286Z,-0.67
2022-12-11T00:31:51.061Z,-0.69
2022-12-11T00:34:53.819Z,-0.71
2022-12-11T00:37:56.609Z,-0.71
2022-12-11T00:41:00.028Z,-0.71
2022-12-11T00:44:03.537Z,-0.72
2022-12-11T00:47:06.309Z,-0.70
2022-12-11T00:50:09.316Z,-0.69
2022-12-11T00:53:12.193Z,-0.67
2022-12-11T00:56:24.704Z,-0.67
2022-12-11T00:59:28.827Z,-0.68
2022-12-11T01:02:31.586Z,-0.64
2022-12-11T01:05:34.529Z,-0.63
2022-12-11T01:08:38.847Z,-0.64
2022-12-11T01:11:42.949Z,-0.66
2022-12-11T01:14:46.259Z,-0.68
2022-12-11T01:17:50.524Z,-0.67
2022-12-11T01:20:53.420Z,-0.70
2022-12-11T01:23:56.251Z,-0.69
2022-12-11T01:26:59.019Z,-0.65
2022-12-11T01:30:01.791Z,-0.61
2022-12-11T01:33:04.649Z,-0.60
2022-12-11T01:36:21.471Z,-0.56
2022-12-11T01:39:24.383Z,-0.59
2022-12-11T01:42:29.615Z,-0.65
2022-12-11T01:45:52.966Z,-0.68
2022-12-11T01:48:56.176Z,-0.72
2022-12-11T01:52:03.327Z,-0.74
2022-12-11T01:55:07.114Z,-0.76
2022-12-11T01:58:11.792Z,-0.77
2022-12-11T02:01:22.702Z,-0.77
2022-12-11T02:04:26.176Z,-0.78
2022-12-11T02:07:33.914Z,-0.81
2022-12-11T02:10:56.574Z,-0.81
2022-12-11T02:14:20.218Z,-0.80
2022-12-11T02:17:32.782Z,-0.80
2022-12-11T02:20:35.487Z,-0.77
2022-12-11T02:23:40.879Z,-0.78
2022-12-11T02:27:11.144Z,-0.77
2022-12-11T02:30:16.283Z,-0.73
2022-12-11T02:33:23.543Z,-0.71
2022-12-11T02:36:31.320Z,-0.67
2022-12-11T02:39:38.909Z,-0.66
2022-12-11T02:42:44.420Z,-0.67
2022-12-11T02:45:49.749Z,-0.69
2022-12-11T02:48:53.894Z,-0.72
2022-12-11T02:51:59.252Z,-0.73
2022-12-11T02:55:04.342Z,-0.76
2022-12-11T02:58:18.358Z,-0.75
2022-12-11T03:01:21.593Z,-0.76
2022-12-11T03:04:25.103Z,-0.79
2022-12-11T03:07:34.361Z,-0.78
2022-12-11T03:10:37.159Z,-0.79
2022-12-11T03:13:42.663Z,-0.80
2022-12-11T03:17:00.242Z,-0.81
2022-12-11T03:20:21.391Z,-0.82
2022-12-11T03:23:28.570Z,-0.80
2022-12-11T03:26:35.907Z,-0.80
2022-12-11T03:29:45.862Z,-0.78
2022-12-11T03:33:24.153Z,-0.76
2022-12-11T03:36:37.852Z,-0.72
2022-12-11T03:39:49.002Z,-0.72
2022-12-11T03:42:54.124Z,-0.70
2022-12-11T03:45:58.406Z,-0.75
2022-12-11T03:49:06.288Z,-0.75
2022-12-11T03:52:12.523Z,-0.76
2022-12-11T03:55:17.890Z,-0.75
2022-12-11T03:58:20.688Z,-0.80
2022-12-11T04:01:23.564Z,-0.78
2022-12-11T04:04:26.423Z,-0.78
2022-12-11T04:07:29.254Z,-0.79
2022-12-11T04:10:32.041Z,-0.79
2022-12-11T04:13:34.908Z,-0.76
2022-12-11T04:16:37.834Z,-0.77
2022-12-11T04:19:59.202Z,-0.77
2022-12-11T04:23:33.252Z,-0.85
2022-12-11T04:26:35.996Z,-0.91
2022-12-11T04:29:38.758Z,-0.98
2022-12-11T04:32:42.026Z,-1.05
2022-12-11T04:35:44.762Z,-1.03
2022-12-11T04:38:47.555Z,-1.03
2022-12-11T04:41:50.325Z,-1.03
2022-12-11T04:44:53.081Z,-0.99
2022-12-11T04:47:55.914Z,-0.97
2022-12-11T04:50:59.209Z,-0.94
2022-12-11T04:54:01.983Z,-0.96
2022-12-11T04:57:04.754Z,-0.98
2022-12-11T05:00:10.114Z,-0.99
2022-12-11T05:03:13.145Z,-0.98
2022-12-11T05:06:16.509Z,-0.98
2022-12-11T05:09:19.325Z,-0.95
2022-12-11T05:12:22.221Z,-0.95
2022-12-11T05:15:25.011Z,-0.95
2022-12-11T05:18:27.832Z,-0.97
2022-12-11T05:21:35.017Z,-0.98
2022-12-11T05:24:38.170Z,-1.02
2022-12-11T05:27:40.920Z,-1.02
2022-12-11T05:30:43.930Z,-1.03
2022-12-11T05:33:49.023Z,-1.07
2022-12-11T05:36:51.904Z,-1.07
2022-12-11T05:39:54.672Z,-1.10
2022-12-11T05:42:57.431Z,-1.13
2022-12-11T05:46:33.131Z,-1.14
2022-12-11T05:49:35.959Z,-1.18
2022-12-11T05:52:38.790Z,-1.19
2022-12-11T05:55:41.662Z,-1.22
2022-12-11T05:58:45.545Z,-1.22
2022-12-11T06:01:48.481Z,-1.27
2022-12-11T06:04:51.359Z,-1.29
2022-12-11T06:07:54.175Z,-1.33
2022-12-11T06:10:56.980Z,-1.37
2022-12-11T06:14:01.913Z,-1.41
2022-12-11T06:17:04.616Z,-1.36
2022-12-11T06:20:07.716Z,-1.42
2022-12-11T06:23:10.672Z,-1.40
2022-12-11T06:26:15.632Z,-1.41
2022-12-11T06:29:18.400Z,-1.40
2022-12-11T06:32:21.848Z,-1.34
2022-12-11T06:35:24.941Z,-1.32
2022-12-11T06:38:27.675Z,-1.28
2022-12-11T06:41:30.399Z,-1.26
2022-12-11T06:44:33.167Z,-1.19
2022-12-11T06:47:36.011Z,-1.15
2022-12-11T06:50:39.020Z,-1.18
2022-12-11T06:53:42.665Z,-1.17
2022-12-11T06:56:45.384Z,-1.17
2022-12-11T06:59:48.740Z,-1.21
2022-12-11T07:02:51.631Z,-1.23
2022-12-11T07:05:54.394Z,-1.25
2022-12-11T07:08:57.239Z,-1.23
2022-12-11T07:12:00.081Z,-1.19
2022-12-11T07:15:05.099Z,-1.22
2022-12-11T07:18:07.889Z,-1.24
2022-12-11T07:21:12.868Z,-1.22
2022-12-11T07:24:15.808Z,-1.21
2022-12-11T07:27:18.569Z,-1.21
2022-12-11T07:30:21.405Z,-1.19
2022-12-11T07:33:24.245Z,-1.21
2022-12-11T07:36:28.375Z,-1.20
2022-12-11T07:39:31.136Z,-1.18
2022-12-11T07:42:33.884Z,-1.13
2022-12-11T07:45:36.933Z,-1.07
2022-12-11T07:48:41.242Z,-1.06
2022-12-11T07:51:44.024Z,-0.98
2022-12-11T07:54:46.838Z,-0.94
2022-12-11T07:57:49.634Z,-0.94
2022-12-11T08:00:53.702Z,-0.91
2022-12-11T08:03:57.088Z,-0.86
2022-12-11T08:06:59.950Z,-0.78
2022-12-11T08:10:04.209Z,-0.71
2022-12-11T08:13:07.019Z,-0.66
2022-12-11T08:16:13.266Z,-0.65
2022-12-11T08:19:16.536Z,-0.63
2022-12-11T08:22:19.322Z,-0.63
2022-12-11T08:25:22.174Z,-0.57
2022-12-11T08:28:27.018Z,-0.47
2022-12-11T08:31:30.713Z,-0.39
2022-12-11T08:34:33.612Z,-0.33
2022-12-11T08:37:36.374Z,-0.23
2022-12-11T08:40:39.164Z,-0.17
2022-12-11T08:43:42.089Z,-0.08
2022-12-11T08:46:45.055Z,-0.09
2022-12-11T08:49:47.944Z,-0.12
2022-12-11T08:52:51.312Z,-0.10
2022-12-11T08:55:54.174Z,-0.02
2022-12-11T08:59:00.915Z,0.01
2022-12-11T09:02:03.884Z,0.05
2022-12-11T09:05:09.726Z,0.05
2022-12-11T09:08:13.142Z,0.00
2022-12-11T09:11:19.490Z,-0.12
2022-12-11T09:14:22.506Z,-0.19
2022-12-11T09:17:25.269Z,-0.21
2022-12-11T09:20:28.101Z,-0.30
2022-12-11T09:23:31.002Z,-0.37
2022-12-11T09:26:34.164Z,-0.38
2022-12-11T09:29:36.951Z,-0.43
2022-12-11T09:32:40.301Z,-0.46
2022-12-11T09:35:43.438Z,-0.45
2022-12-11T09:38:46.999Z,-0.32
2022-12-11T09:42:34.001Z,-0.28
2022-12-11T09:45:36.843Z,-0.49
2022-12-11T09:48:43.622Z,-0.54
2022-12-11T09:52:00.155Z,-0.60
2022-12-11T09:55:13.437Z,-0.69
2022-12-11T09:58:54.529Z,-0.69
2022-12-11T10:02:15.053Z,-0.52
2022-12-11T10:05:26.888Z,-0.49
2022-12-11T10:08:48.213Z,-0.51
2022-12-11T10:12:42.499Z,-0.55
2022-12-11T10:15:48.097Z,-0.50
2022-12-11T10:18:52.396Z,-0.48
2022-12-11T10:21:56.450Z,-0.43
2022-12-11T10:25:12.207Z,-0.39
2022-12-11T10:28:18.127Z,-0.42
2022-12-11T10:31:35.926Z,-0.55
2022-12-11T10:34:44.396Z,-0.60
2022-12-11T10:37:47.218Z,-0.61
2022-12-11T10:40:59.583Z,-0.56
2022-12-11T10:44:13.887Z,-0.44
2022-12-11T10:47:18.886Z,-0.56
2022-12-11T10:50:26.143Z,-0.60
2022-12-11T10:53:30.601Z,-0.61
2022-12-11T10:56:36.040Z,-0.66
2022-12-11T10:59:48.130Z,-0.73
2022-12-11T11:02:51.217Z,-0.79
2022-12-11T11:06:23.617Z,-0.68
2022-12-11T11:09:34.436Z,-0.64
2022-12-11T11:12:44.299Z,-0.78
2022-12-11T11:15:47.462Z,-0.85
2022-12-11T11:18:56.033Z,-0.88
2022-12-11T11:22:14.409Z,-0.93
2022-12-11T11:25:19.667Z,-0.96
2022-12-11T11:28:27.317Z,-0.98
2022-12-11T11:31:36.031Z,-1.03
2022-12-11T11:34:38.888Z,-1.13
2022-12-11T11:37:46.809Z,-1.12
2022-12-11T11:41:16.191Z,-1.14
2022-12-11T11:44:27.526Z,-1.05
2022-12-11T11:47:41.708Z,-1.03
2022-12-11T11:50:50.485Z,-1.05
2022-12-11T11:53:58.593Z,-0.94
2022-12-11T11:57:27.321Z,-0.93
2022-12-11T12:00:33.813Z,-0.81
2022-12-11T12:03:37.040Z,-0.75
2022-12-11T12:06:50.534Z,-0.56
2022-12-11T12:10:09.702Z,-0.41
2022-12-11T12:13:49.231Z,-0.37
2022-12-11T12:16:59.937Z,-0.31
2022-12-11T12:20:36.821Z,-0.29
2022-12-11T12:23:51.734Z,-0.47
2022-12-11T12:27:02.563Z,-0.68
2022-12-11T12:30:14.044Z,-0.94
2022-12-11T12:33:18.924Z,-0.97
2022-12-11T12:36:38.467Z,-0.99
2022-12-11T12:40:06.298Z,-1.14
2022-12-11T12:43:29.302Z,-1.21
2022-12-11T12:46:41.301Z,-1.25
2022-12-11T12:49:47.120Z,-1.27
2022-12-11T12:52:51.800Z,-1.39
2022-12-11T12:55:55.960Z,-1.53
2022-12-11T12:58:58.788Z,-1.55
2022-12-11T13:02:04.408Z,-1.56
2022-12-11T13:05:21.326Z,-1.62
2022-12-11T13:08:26.959Z,-1.71
2022-12-11T13:11:34.929Z,-1.72
2022-12-11T13:14:37.718Z,-1.80
2022-12-11T13:17:40.603Z,-1.96
2022-12-11T13:20:51.218Z,-1.99
2022-12-11T13:23:55.188Z,-1.96
2022-12-11T13:27:11.800Z,-1.93
2022-12-11T13:30:14.529Z,-1.98
2022-12-11T13:33:19.477Z,-2.08
2022-12-11T13:36:24.769Z,-2.15
2022-12-11T13:39:32.056Z,-2.20
2022-12-11T13:42:41.804Z,-2.26
2022-12-11T13:45:49.932Z,-2.25
2022-12-11T13:48:57.332Z,-2.24
2022-12-11T13:52:01.220Z,-2.27
2022-12-11T13:55:17.387Z,-2.33
2022-12-11T13:58:22.922Z,-2.40
2022-12-11T14:01:30.850Z,-2.42
2022-12-11T14:04:34.712Z,-2.48
2022-12-11T14:07:43.424Z,-2.50
2022-12-11T14:10:52.696Z,-2.62
2022-12-11T14:14:01.924Z,-2.67
2022-12-11T14:17:05.013Z,-2.70
2022-12-11T14:20:18.264Z,-2.74
2022-12-11T14:23:24.212Z,-2.77
2022-12-11T14:26:32.847Z,-2.86
2022-12-11T14:29:35.608Z,-2.93
2022-12-11T14:32:45.151Z,-2.97
2022-12-11T14:35:50.727Z,-3.07
2022-12-11T14:39:00.235Z,-3.10
2022-12-11T14:42:23.353Z,-3.09
2022-12-11T14:45:42.695Z,-3.12
2022-12-11T14:49:00.780Z,-3.14
2022-12-11T14:52:05.023Z,-3.20
2022-12-11T14:55:13.590Z,-3.25
2022-12-11T14:58:26.689Z,-3.28
2022-12-11T15:01:36.724Z,-3.35
2022-12-11T15:04:39.697Z,-3.42
2022-12-11T15:07:53.901Z,-3.44
2022-12-11T15:11:09.071Z,-3.44
2022-12-11T15:14:13.852Z,-3.43
2022-12-11T15:17:17.735Z,-3.45
2022-12-11T15:20:24.696Z,-3.46
2022-12-11T15:23:28.510Z,-3.46
2022-12-11T15:26:44.246Z,-3.45
2022-12-11T15:29:47.069Z,-3.47
2022-12-11T15:32:49.973Z,-3.49
2022-12-11T15:36:07.158Z,-3.48
2022-12-11T15:39:09.946Z,-3.44
2022-12-11T15:42:18.159Z,-3.36
2022-12-11T15:45:26.262Z,-3.25
2022-12-11T15:48:29.116Z,-3.22
2022-12-11T15:51:31.957Z,-3.27
2022-12-11T15:54:34.762Z,-3.36
2022-12-11T15:57:39.424Z,-3.48
2022-12-11T16:00:42.320Z,-3.60
2022-12-11T16:03:45.907Z,-3.71
2022-12-11T16:06:48.735Z,-3.73
2022-12-11T16:09:52.149Z,-3.75
2022-12-11T16:12:59.628Z,-3.80
2022-12-11T16:16:02.638Z,-3.80
2022-12-11T16:19:05.479Z,-3.85
2022-12-11T16:22:09.243Z,-3.86
2022-12-11T16:25:12.302Z,-3.86
2022-12-11T16:28:17.624Z,-3.88
2022-12-11T16:31:20.565Z,-3.87
2022-12-11T16:34:27.685Z,-3.90
2022-12-11T16:37:30.506Z,-3.93
2022-12-11T16:40:33.340Z,-3.94
2022-12-11T16:43:36.124Z,-3.93
2022-12-11T16:46:39.030Z,-3.92
2022-12-11T16:49:43.297Z,-3.93
2022-12-11T16:52:46.147Z,-3.89
2022-12-11T16:55:48.963Z,-3.87
2022-12-11T16:58:51.851Z,-3.87
2022-12-11T17:01:54.725Z,-3.85
2022-12-11T17:04:57.595Z,-3.86
2022-12-11T17:08:00.419Z,-3.91
2022-12-11T17:11:08.040Z,-3.96
2022-12-11T17:14:12.727Z,-3.98
2022-12-11T17:17:15.619Z,-3.92
2022-12-11T17:20:18.540Z,-3.92
2022-12-11T17:23:21.353Z,-3.93
2022-12-11T17:26:25.416Z,-3.86
2022-12-11T17:29:28.302Z,-3.91
2022-12-11T17:32:31.045Z,-4.00
2022-12-11T17:35:34.412Z,-4.00
2022-12-11T17:38:37.181Z,-3.97
2022-12-11T17:41:39.929Z,-3.95
2022-12-11T17:44:45.608Z,-3.87
2022-12-11T17:47:48.486Z,-3.86
2022-12-11T17:50:52.810Z,-3.84
2022-12-11T17:53:56.283Z,-3.88
2022-12-11T17:56:59.075Z,-3.82
2022-12-11T18:00:01.975Z,-3.85
2022-12-11T18:03:04.942Z,-3.94
2022-12-11T18:06:10.712Z,-3.96
2022-12-11T18:09:13.594Z,-3.94
2022-12-11T18:12:16.561Z,-4.00
2022-12-11T18:15:19.895Z,-4.06
2022-12-11T18:18:22.716Z,-4.04
2022-12-11T18:21:32.354Z,-4.10
2022-12-11T18:24:35.188Z,-4.13
2022-12-11T18:27:38.605Z,-4.16
2022-12-11T18:30:41.472Z,-4.10
2022-12-11T18:33:45.414Z,-4.10
2022-12-11T18:36:48.266Z,-4.13
2022-12-11T18:39:51.203Z,-4.12
2022-12-11T18:42:53.972Z,-4.09
2022-12-11T18:45:56.820Z,-4.05
2022-12-11T18:48:59.681Z,-4.04
2022-12-11T18:52:02.558Z,-3.98
2022-12-11T18:55:05.907Z,-3.94
2022-12-11T18:58:08.865Z,-3.93
2022-12-11T19:01:16.263Z,-3.90
2022-12-11T19:04:19.123Z,-3.93
2022-12-11T19:07:22.147Z,-3.96
2022-12-11T19:10:25.138Z,-3.92
2022-12-11T19:13:27.972Z,-3.88
2022-12-11T19:16:37.179Z,-3.93
2022-12-11T19:19:40.792Z,-3.92
2022-12-11T19:22:43.780Z,-3.91
2022-12-11T19:25:48.013Z,-3.92
2022-12-11T19:28:52.785Z,-3.95
2022-12-11T19:31:56.018Z,-4.00
2022-12-11T19:34:58.843Z,-4.03
2022-12-11T19:38:01.685Z,-4.05
2022-12-11T19:41:35.037Z,-4.06
2022-12-11T19:44:37.862Z,-4.10
2022-12-11T19:47:40.748Z,-4.08
2022-12-11T19:50:43.610Z,-4.06
2022-12-11T19:53:49.390Z,-4.06
2022-12-11T19:56:52.389Z,-4.06
2022-12-11T19:59:57.420Z,-4.06
2022-12-11T20:03:00.453Z,-4.04
2022-12-11T20:06:07.205Z,-4.09
2022-12-11T20:09:12.181Z,-4.07
2022-12-11T20:12:15.131Z,-4.08
2022-12-11T20:15:19.897Z,-4.11
2022-12-11T20:18:22.746Z,-4.19
2022-12-11T20:21:27.333Z,-4.18
2022-12-11T20:24:30.469Z,-4.21
2022-12-11T20:27:33.395Z,-4.21
2022-12-11T20:30:36.240Z,-4.21
2022-12-11T20:33:39.438Z,-4.20
2022-12-11T20:36:42.599Z,-4.20
2022-12-11T20:39:45.476Z,-4.20
2022-12-11T20:42:48.350Z,-4.21
2022-12-11T20:45:51.683Z,-4.14
2022-12-11T20:48:59.331Z,-4.08
2022-12-11T20:52:02.516Z,-4.09
2022-12-11T20:55:06.409Z,-4.14
2022-12-11T20:58:09.634Z,-4.14
2022-12-11T21:01:27.307Z,-4.13
2022-12-11T21:04:30.163Z,-4.07
2022-12-11T21:07:33.019Z,-4.08
2022-12-11T21:10:36.365Z,-4.06
2022-12-11T21:13:39.256Z,-4.02
2022-12-11T21:16:48.834Z,-4.00
2022-12-11T21:19:58.026Z,-3.99
2022-12-11T21:23:01.902Z,-3.97
2022-12-11T21:26:05.269Z,-3.96
2022-12-11T21:29:08.112Z,-3.95
2022-12-11T21:32:10.969Z,-3.98
2022-12-11T21:35:14.361Z,-3.98
2022-12-11T21:38:17.596Z,-3.98
2022-12-11T21:41:23.478Z,-4.04
2022-12-11T21:47:49.207Z,-4.13
2022-12-11T21:50:52.108Z,-4.12
2022-12-11T21:53:55.548Z,-4.08
2022-12-11T21:56:58.496Z,-4.05
2022-12-11T22:00:01.400Z,-4.02
2022-12-11T22:03:06.666Z,-3.99
2022-12-11T22:06:09.576Z,-3.99
2022-12-11T22:09:14.061Z,-3.98
2022-12-11T22:12:26.044Z,-3.95
2022-12-11T22:15:28.833Z,-3.96
2022-12-11T22:18:31.611Z,-3.96
2022-12-11T22:21:34.966Z,-3.95
2022-12-11T22:24:38.794Z,-3.91
2022-12-11T22:27:41.543Z,-3.91
2022-12-11T22:30:44.874Z,-3.93
2022-12-11T22:33:50.174Z,-3.97
2022-12-11T22:36:53.134Z,-4.00
2022-12-11T22:39:56.168Z,-4.03
2022-12-11T22:42:59.014Z,-4.02
2022-12-11T22:46:04.877Z,-3.99
2022-12-11T22:49:10.187Z,-3.96
2022-12-11T22:52:13.102Z,-3.97
2022-12-11T22:55:15.964Z,-3.97
2022-12-11T22:58:21.881Z,-4.01
2022-12-11T23:01:27.166Z,-4.04
2022-12-11T23:04:30.785Z,-4.08
2022-12-11T23:07:34.179Z,-4.14
2022-12-11T23:10:40.525Z,-4.17
2022-12-11T23:13:43.503Z,-4.15
2022-12-11T23:16:46.544Z,-4.13
2022-12-11T23:19:49.533Z,-4.09
2022-12-11T23:22:52.561Z,-4.07
2022-12-11T23:25:56.774Z,-4.07
2022-12-11T23:29:00.414Z,-4.05
2022-12-11T23:32:03.516Z,-4.05
2022-12-11T23:35:06.612Z,-4.06
2022-12-11T23:38:09.424Z,-4.09
2022-12-11T23:41:14.265Z,-4.13
2022-12-11T23:44:17.271Z,-4.17
2022-12-11T23:47:20.099Z,-4.16
2022-12-11T23:50:23.059Z,-4.15
2022-12-11T23:53:26.068Z,-4.11
2022-12-11T23:56:30.178Z,-4.07
2022-12-11T23:59:33.006Z,-4.02
